Brockwell, Arkansas
Current Conditions -  °F | °C
As of 1:15 AM on Friday 31 Oct 2014 (Local Time) from KBVX Reporting Station
Clear Clear  
Wind Chill: 11°   Ceiling: Unl
Heat Index: 11°   Visibility: 10mi
Dew Point:   Wind: 5mph
Humidity: 76%   Direction: 290°WNW
Pressure: 30.03"   Gusts: NA
Location:  36.14°N, 91.93°W
Report Text: KBVX 310615Z AUTO 29004KT 10SM CLR 11/07 A3003 RMK AO1
Loading
Personal Weather Stations






























Interactive Weather Map
Tropical Storm Tracking
New forecast layout! Learn more

10-Day Weather Forecast

Advertisements
Track Severe Weather on mobile